Airport View

Enter AWOS ICAO identifier for current METAR.

ex. KFNL

KLHB 191915Z AUTO 18011KT 10SM CLR 34/26 A2980 RMK AO2 T03380259

19 Jun 2019 19:27

Frequency: 118.675

Phone: 979-280-5596

Other Area AWOS: KCFD - KT35 - KCLL - KRWV

TAF KCLL 191726Z 1918/2018 18014KT P6SM FEW035 FM200300 17009KT P6SM SCT025 BKN120 FM200700 17011KT P6SM BKN020 FM201500 20015KT P6SM SCT025 SCT250